sensor_id;sensor_type;location;lat;lon;timestamp;pressure;altitude;pressure_sealevel;temperature;humidity
80118;BME280;69424;48.770;-1.564;2023-09-12T00:00:10;101432.80;;;18.70;79.26
80118;BME280;69424;48.770;-1.564;2023-09-12T00:01:05;101431.55;;;18.71;78.95
80118;BME280;69424;48.770;-1.564;2023-09-12T00:01:39;101435.84;;;18.70;78.83
80118;BME280;69424;48.770;-1.564;2023-09-12T00:02:12;101432.98;;;18.70;78.86
80118;BME280;69424;48.770;-1.564;2023-09-12T00:02:45;101431.55;;;18.69;78.94
80118;BME280;69424;48.770;-1.564;2023-09-12T00:03:20;101433.36;;;18.69;78.98
80118;BME280;69424;48.770;-1.564;2023-09-12T00:03:54;101432.09;;;18.70;79.05
80118;BME280;69424;48.770;-1.564;2023-09-12T00:04:28;101434.95;;;18.70;78.98
80118;BME280;69424;48.770;-1.564;2023-09-12T00:05:02;101433.70;;;18.70;78.89
80118;BME280;69424;48.770;-1.564;2023-09-12T00:05:35;101432.80;;;18.70;78.81
80118;BME280;69424;48.770;-1.564;2023-09-12T00:06:09;101433.70;;;18.70;78.80
80118;BME280;69424;48.770;-1.564;2023-09-12T00:06:42;101434.05;;;18.70;78.74
80118;BME280;69424;48.770;-1.564;2023-09-12T00:07:16;101433.33;;;18.71;78.65
80118;BME280;69424;48.770;-1.564;2023-09-12T00:07:52;101435.30;;;18.71;78.64
80118;BME280;69424;48.770;-1.564;2023-09-12T00:08:26;101434.75;;;18.73;78.58
80118;BME280;69424;48.770;-1.564;2023-09-12T00:08:59;101434.55;;;18.73;78.49
80118;BME280;69424;48.770;-1.564;2023-09-12T00:09:32;101433.11;;;18.74;78.54
80118;BME280;69424;48.770;-1.564;2023-09-12T00:10:05;101437.23;;;18.74;78.58
80118;BME280;69424;48.770;-1.564;2023-09-12T00:10:38;101434.91;;;18.73;78.42
80118;BME280;69424;48.770;-1.564;2023-09-12T00:11:11;101436.16;;;18.74;78.45
80118;BME280;69424;48.770;-1.564;2023-09-12T00:11:44;101437.23;;;18.74;78.36
80118;BME280;69424;48.770;-1.564;2023-09-12T00:12:22;101432.41;;;18.73;78.29
80118;BME280;69424;48.770;-1.564;2023-09-12T00:12:55;101434.20;;;18.73;78.09
80118;BME280;69424;48.770;-1.564;2023-09-12T00:13:29;101433.13;;;18.73;77.78
80118;BME280;69424;48.770;-1.564;2023-09-12T00:14:02;101432.62;;;18.71;77.71
80118;BME280;69424;48.770;-1.564;2023-09-12T00:14:35;101433.34;;;18.70;77.68
80118;BME280;69424;48.770;-1.564;2023-09-12T00:15:09;101432.83;;;18.68;77.51
80118;BME280;69424;48.770;-1.564;2023-09-12T00:15:42;101432.84;;;18.67;77.57
80118;BME280;69424;48.770;-1.564;2023-09-12T00:16:15;101433.05;;;18.65;77.45
80118;BME280;69424;48.770;-1.564;2023-09-12T00:16:48;101427.36;;;18.63;77.51
80118;BME280;69424;48.770;-1.564;2023-09-12T00:17:23;101427.90;;;18.61;77.67
80118;BME280;69424;48.770;-1.564;2023-09-12T00:17:56;101430.97;;;18.60;77.68
80118;BME280;69424;48.770;-1.564;2023-09-12T00:18:29;101432.60;;;18.58;77.81
80118;BME280;69424;48.770;-1.564;2023-09-12T00:19:03;101431.38;;;18.56;77.72
80118;BME280;69424;48.770;-1.564;2023-09-12T00:19:36;101432.66;;;18.55;77.93
80118;BME280;69424;48.770;-1.564;2023-09-12T00:20:09;101431.06;;;18.53;77.88
80118;BME280;69424;48.770;-1.564;2023-09-12T00:20:44;101433.41;;;18.51;77.88
80118;BME280;69424;48.770;-1.564;2023-09-12T00:21:17;101435.94;;;18.49;77.95
80118;BME280;69424;48.770;-1.564;2023-09-12T00:21:50;101434.17;;;18.47;78.23
80118;BME280;69424;48.770;-1.564;2023-09-12T00:22:25;101437.41;;;18.46;78.37
80118;BME280;69424;48.770;-1.564;2023-09-12T00:22:58;101436.88;;;18.45;78.60
80118;BME280;69424;48.770;-1.564;2023-09-12T00:23:32;101437.45;;;18.45;78.68
80118;BME280;69424;48.770;-1.564;2023-09-12T00:24:05;101440.66;;;18.43;78.60
80118;BME280;69424;48.770;-1.564;2023-09-12T00:24:38;101439.42;;;18.43;78.51
80118;BME280;69424;48.770;-1.564;2023-09-12T00:25:11;101440.14;;;18.42;78.46
80118;BME280;69424;48.770;-1.564;2023-09-12T00:25:45;101439.44;;;18.42;78.41
80118;BME280;69424;48.770;-1.564;2023-09-12T00:26:17;101437.83;;;18.41;78.45
80118;BME280;69424;48.770;-1.564;2023-09-12T00:26:53;101437.65;;;18.41;78.62
80118;BME280;69424;48.770;-1.564;2023-09-12T00:27:25;101440.70;;;18.41;78.86
80118;BME280;69424;48.770;-1.564;2023-09-12T00:27:58;101439.45;;;18.41;78.64
80118;BME280;69424;48.770;-1.564;2023-09-12T00:28:31;101442.86;;;18.40;78.37
80118;BME280;69424;48.770;-1.564;2023-09-12T00:29:06;101439.46;;;18.39;78.19
80118;BME280;69424;48.770;-1.564;2023-09-12T00:29:39;101440.02;;;18.38;78.20
80118;BME280;69424;48.770;-1.564;2023-09-12T00:30:14;101442.54;;;18.38;78.28
80118;BME280;69424;48.770;-1.564;2023-09-12T00:30:47;101441.66;;;18.37;78.42
80118;BME280;69424;48.770;-1.564;2023-09-12T00:31:20;101441.48;;;18.36;78.54
80118;BME280;69424;48.770;-1.564;2023-09-12T00:31:54;101438.08;;;18.36;78.76
80118;BME280;69424;48.770;-1.564;2023-09-12T00:32:27;101441.48;;;18.36;78.70
80118;BME280;69424;48.770;-1.564;2023-09-12T00:33:00;101440.23;;;18.36;78.66
80118;BME280;69424;48.770;-1.564;2023-09-12T00:33:34;101441.13;;;18.35;78.73
80118;BME280;69424;48.770;-1.564;2023-09-12T00:34:07;101442.73;;;18.35;78.81
80118;BME280;69424;48.770;-1.564;2023-09-12T00:34:40;101441.85;;;18.36;78.78
80118;BME280;69424;48.770;-1.564;2023-09-12T00:35:13;101444.52;;;18.36;78.80
80118;BME280;69424;48.770;-1.564;2023-09-12T00:35:46;101444.17;;;18.36;78.73
80118;BME280;69424;48.770;-1.564;2023-09-12T00:36:19;101444.52;;;18.36;78.67
80118;BME280;69424;48.770;-1.564;2023-09-12T00:36:53;101443.09;;;18.37;78.73
80118;BME280;69424;48.770;-1.564;2023-09-12T00:37:26;101445.23;;;18.38;78.53
80118;BME280;69424;48.770;-1.564;2023-09-12T00:38:00;101445.94;;;18.38;78.36
80118;BME280;69424;48.770;-1.564;2023-09-12T00:38:33;101449.14;;;18.38;78.24
80118;BME280;69424;48.770;-1.564;2023-09-12T00:39:06;101451.83;;;18.38;78.07
80118;BME280;69424;48.770;-1.564;2023-09-12T00:39:39;101448.80;;;18.38;77.98
80118;BME280;69424;48.770;-1.564;2023-09-12T00:40:12;101450.60;;;18.37;78.03
80118;BME280;69424;48.770;-1.564;2023-09-12T00:40:45;101447.39;;;18.37;78.05
80118;BME280;69424;48.770;-1.564;2023-09-12T00:41:18;101450.79;;;18.37;78.19
80118;BME280;69424;48.770;-1.564;2023-09-12T00:41:51;101449.17;;;18.37;78.25
80118;BME280;69424;48.770;-1.564;2023-09-12T00:42:27;101452.58;;;18.37;78.37
80118;BME280;69424;48.770;-1.564;2023-09-12T00:43:00;101454.17;;;18.37;78.28
80118;BME280;69424;48.770;-1.564;2023-09-12T00:43:34;101454.73;;;18.37;78.22
80118;BME280;69424;48.770;-1.564;2023-09-12T00:44:07;101451.86;;;18.36;78.17
80118;BME280;69424;48.770;-1.564;2023-09-12T00:44:40;101454.56;;;18.36;78.28
80118;BME280;69424;48.770;-1.564;2023-09-12T00:45:13;101454.38;;;18.36;78.20
80118;BME280;69424;48.770;-1.564;2023-09-12T00:45:46;101454.57;;;18.35;78.16
80118;BME280;69424;48.770;-1.564;2023-09-12T00:46:21;101457.61;;;18.34;78.24
80118;BME280;69424;48.770;-1.564;2023-09-12T00:46:56;101452.23;;;18.34;78.18
80118;BME280;69424;48.770;-1.564;2023-09-12T00:47:30;101451.00;;;18.34;78.31
80118;BME280;69424;48.770;-1.564;2023-09-12T00:48:05;101450.63;;;18.34;78.25
80118;BME280;69424;48.770;-1.564;2023-09-12T00:48:39;101450.30;;;18.33;78.08
80118;BME280;69424;48.770;-1.564;2023-09-12T00:49:13;101453.33;;;18.33;77.94
80118;BME280;69424;48.770;-1.564;2023-09-12T00:49:48;101452.45;;;18.31;77.85
80118;BME280;69424;48.770;-1.564;2023-09-12T00:50:29;101450.31;;;18.31;78.02
80118;BME280;69424;48.770;-1.564;2023-09-12T00:51:04;101448.52;;;18.31;78.10
80118;BME280;69424;48.770;-1.564;2023-09-12T00:51:38;101449.41;;;18.30;78.28
80118;BME280;69424;48.770;-1.564;2023-09-12T00:52:12;101448.15;;;18.31;78.44
80118;BME280;69424;48.770;-1.564;2023-09-12T00:52:47;101450.11;;;18.31;78.57
80118;BME280;69424;48.770;-1.564;2023-09-12T00:53:21;101449.22;;;18.33;78.48
80118;BME280;69424;48.770;-1.564;2023-09-12T00:53:54;101450.29;;;18.34;78.45
80118;BME280;69424;48.770;-1.564;2023-09-12T00:54:28;101447.95;;;18.35;78.23
80118;BME280;69424;48.770;-1.564;2023-09-12T00:55:02;101445.78;;;18.36;78.19
80118;BME280;69424;48.770;-1.564;2023-09-12T00:55:39;101446.48;;;18.37;78.16
80118;BME280;69424;48.770;-1.564;2023-09-12T00:56:16;101448.46;;;18.37;78.14
80118;BME280;69424;48.770;-1.564;2023-09-12T00:56:49;101445.77;;;18.37;78.09
80118;BME280;69424;48.770;-1.564;2023-09-12T00:57:23;101447.55;;;18.38;78.05
80118;BME280;69424;48.770;-1.564;2023-09-12T00:57:56;101444.31;;;18.38;78.12
80118;BME280;69424;48.770;-1.564;2023-09-12T00:58:30;101444.84;;;18.39;78.18
80118;BME280;69424;48.770;-1.564;2023-09-12T00:59:04;101442.50;;;18.40;78.28
80118;BME280;69424;48.770;-1.564;2023-09-12T00:59:37;101445.19;;;18.40;78.28
80118;BME280;69424;48.770;-1.564;2023-09-12T01:00:11;101443.73;;;18.41;78.45
80118;BME280;69424;48.770;-1.564;2023-09-12T01:00:45;101440.69;;;18.42;78.60
80118;BME280;69424;48.770;-1.564;2023-09-12T01:01:19;101440.67;;;18.43;78.82
80118;BME280;69424;48.770;-1.564;2023-09-12T01:01:54;101444.24;;;18.44;78.95
80118;BME280;69424;48.770;-1.564;2023-09-12T01:02:27;101442.27;;;18.45;78.95
80118;BME280;69424;48.770;-1.564;2023-09-12T01:03:00;101443.86;;;18.46;78.79
80118;BME280;69424;48.770;-1.564;2023-09-12T01:03:35;101440.45;;;18.47;78.79
80118;BME280;69424;48.770;-1.564;2023-09-12T01:04:09;101442.04;;;18.47;78.72
80118;BME280;69424;48.770;-1.564;2023-09-12T01:05:03;101438.27;;;18.48;78.60
80118;BME280;69424;48.770;-1.564;2023-09-12T01:05:38;101436.67;;;18.47;78.63
80118;BME280;69424;48.770;-1.564;2023-09-12T01:06:12;101440.43;;;18.48;78.74
80118;BME280;69424;48.770;-1.564;2023-09-12T01:06:48;101439.16;;;18.49;78.90
80118;BME280;69424;48.770;-1.564;2023-09-12T01:07:21;101441.48;;;18.50;78.82
80118;BME280;69424;48.770;-1.564;2023-09-12T01:07:55;101441.65;;;18.51;78.87
80118;BME280;69424;48.770;-1.564;2023-09-12T01:08:28;101443.80;;;18.51;78.78
80118;BME280;69424;48.770;-1.564;2023-09-12T01:09:03;101441.45;;;18.52;78.81
80118;BME280;69424;48.770;-1.564;2023-09-12T01:09:36;101440.20;;;18.53;79.08
80118;BME280;69424;48.770;-1.564;2023-09-12T01:10:10;101444.31;;;18.54;78.99
80118;BME280;69424;48.770;-1.564;2023-09-12T01:10:43;101441.79;;;18.55;78.99
80118;BME280;69424;48.770;-1.564;2023-09-12T01:11:18;101445.53;;;18.56;79.00
80118;BME280;69424;48.770;-1.564;2023-09-12T01:11:53;101438.18;;;18.57;78.92
80118;BME280;69424;48.770;-1.564;2023-09-12T01:12:27;101440.84;;;18.58;78.88
80118;BME280;69424;48.770;-1.564;2023-09-12T01:13:00;101437.80;;;18.58;78.97
80118;BME280;69424;48.770;-1.564;2023-09-12T01:13:34;101434.21;;;18.58;78.89
80118;BME280;69424;48.770;-1.564;2023-09-12T01:14:07;101434.20;;;18.59;78.60
80118;BME280;69424;48.770;-1.564;2023-09-12T01:14:41;101434.73;;;18.58;78.55
80118;BME280;69424;48.770;-1.564;2023-09-12T01:15:13;101436.55;;;18.58;78.68
80118;BME280;69424;48.770;-1.564;2023-09-12T01:15:47;101435.48;;;18.57;78.65
80118;BME280;69424;48.770;-1.564;2023-09-12T01:16:20;101436.55;;;18.57;78.74
80118;BME280;69424;48.770;-1.564;2023-09-12T01:16:53;101439.61;;;18.57;78.96
80118;BME280;69424;48.770;-1.564;2023-09-12T01:17:26;101437.84;;;18.55;78.87
80118;BME280;69424;48.770;-1.564;2023-09-12T01:18:00;101435.16;;;18.54;78.77
80118;BME280;69424;48.770;-1.564;2023-09-12T01:18:36;101438.59;;;18.53;78.77
80118;BME280;69424;48.770;-1.564;2023-09-12T01:19:12;101435.02;;;18.51;78.81
80118;BME280;69424;48.770;-1.564;2023-09-12T01:19:47;101437.91;;;18.49;78.91
80118;BME280;69424;48.770;-1.564;2023-09-12T01:20:25;101433.80;;;18.48;78.99
80118;BME280;69424;48.770;-1.564;2023-09-12T01:23:56;101430.83;;;18.43;79.25
80118;BME280;69424;48.770;-1.564;2023-09-12T01:25:45;101427.23;;;18.43;79.56
80118;BME280;69424;48.770;-1.564;2023-09-12T01:27:51;101425.67;;;18.40;79.69
80118;BME280;69424;48.770;-1.564;2023-09-12T01:28:27;101422.09;;;18.40;79.66
80118;BME280;69424;48.770;-1.564;2023-09-12T01:29:05;101421.73;;;18.40;79.54
80118;BME280;69424;48.770;-1.564;2023-09-12T01:29:40;101418.51;;;18.40;79.62
80118;BME280;69424;48.770;-1.564;2023-09-12T01:30:18;101416.34;;;18.41;79.76
80118;BME280;69424;48.770;-1.564;2023-09-12T01:30:53;101414.55;;;18.42;79.85
80118;BME280;69424;48.770;-1.564;2023-09-12T01:31:27;101415.42;;;18.43;79.68
80118;BME280;69424;48.770;-1.564;2023-09-12T01:32:01;101417.02;;;18.44;79.84
80118;BME280;69424;48.770;-1.564;2023-09-12T01:32:35;101411.81;;;18.45;79.96
80118;BME280;69424;48.770;-1.564;2023-09-12T01:33:09;101410.73;;;18.47;79.97
80118;BME280;69424;48.770;-1.564;2023-09-12T01:33:43;101410.70;;;18.48;80.07
80118;BME280;69424;48.770;-1.564;2023-09-12T01:34:16;101409.77;;;18.50;80.00
80118;BME280;69424;48.770;-1.564;2023-09-12T01:34:50;101409.93;;;18.52;79.95
80118;BME280;69424;48.770;-1.564;2023-09-12T01:35:23;101406.19;;;18.52;79.83
80118;BME280;69424;48.770;-1.564;2023-09-12T01:35:56;101407.25;;;18.53;79.59
80118;BME280;69424;48.770;-1.564;2023-09-12T01:36:29;101402.24;;;18.51;79.55
80118;BME280;69424;48.770;-1.564;2023-09-12T01:37:02;101406.39;;;18.50;79.52
80118;BME280;69424;48.770;-1.564;2023-09-12T01:37:36;101405.67;;;18.48;79.41
80118;BME280;69424;48.770;-1.564;2023-09-12T01:38:09;101405.34;;;18.47;79.23
80118;BME280;69424;48.770;-1.564;2023-09-12T01:38:42;101406.09;;;18.45;79.36
80118;BME280;69424;48.770;-1.564;2023-09-12T01:39:16;101407.36;;;18.44;79.46
80118;BME280;69424;48.770;-1.564;2023-09-12T01:39:49;101405.39;;;18.43;79.64
80118;BME280;69424;48.770;-1.564;2023-09-12T01:40:31;101403.06;;;18.43;79.70
80118;BME280;69424;48.770;-1.564;2023-09-12T01:41:06;101402.19;;;18.43;79.51
80118;BME280;69424;48.770;-1.564;2023-09-12T01:41:42;101399.33;;;18.41;79.61
80118;BME280;69424;48.770;-1.564;2023-09-12T01:42:18;101398.79;;;18.42;79.91
80118;BME280;69424;48.770;-1.564;2023-09-12T01:42:53;101394.86;;;18.42;80.01
80118;BME280;69424;48.770;-1.564;2023-09-12T01:43:30;101399.50;;;18.42;79.88
80118;BME280;69424;48.770;-1.564;2023-09-12T01:44:04;101400.05;;;18.42;79.57
80118;BME280;69424;48.770;-1.564;2023-09-12T01:44:38;101397.70;;;18.42;79.72
80118;BME280;69424;48.770;-1.564;2023-09-12T01:45:15;101393.58;;;18.42;79.90
80118;BME280;69424;48.770;-1.564;2023-09-12T01:45:55;101396.80;;;18.43;80.03
80118;BME280;69424;48.770;-1.564;2023-09-12T01:46:31;101396.79;;;18.44;80.05
80118;BME280;69424;48.770;-1.564;2023-09-12T01:47:06;101396.25;;;18.45;80.20
80118;BME280;69424;48.770;-1.564;2023-09-12T01:47:41;101392.65;;;18.46;80.07
80118;BME280;69424;48.770;-1.564;2023-09-12T01:48:19;101393.00;;;18.47;80.09
80118;BME280;69424;48.770;-1.564;2023-09-12T01:48:55;101392.60;;;18.48;79.75
80118;BME280;69424;48.770;-1.564;2023-09-12T01:49:29;101395.45;;;18.49;79.81
80118;BME280;69424;48.770;-1.564;2023-09-12T01:50:05;101394.54;;;18.50;79.76
80118;BME280;69424;48.770;-1.564;2023-09-12T01:50:39;101395.80;;;18.52;79.77
80118;BME280;69424;48.770;-1.564;2023-09-12T01:51:12;101392.36;;;18.53;79.68
80118;BME280;69424;48.770;-1.564;2023-09-12T01:51:47;101393.45;;;18.54;79.83
80118;BME280;69424;48.770;-1.564;2023-09-12T01:52:21;101395.77;;;18.55;79.97
80118;BME280;69424;48.770;-1.564;2023-09-12T01:52:55;101397.71;;;18.55;79.87
80118;BME280;69424;48.770;-1.564;2023-09-12T01:53:29;101396.81;;;18.56;79.63
80118;BME280;69424;48.770;-1.564;2023-09-12T01:54:03;101394.48;;;18.57;79.50
80118;BME280;69424;48.770;-1.564;2023-09-12T01:54:37;101396.79;;;18.57;79.19
80118;BME280;69424;48.770;-1.564;2023-09-12T01:55:12;101396.25;;;18.57;79.03
80118;BME280;69424;48.770;-1.564;2023-09-12T01:55:46;101399.83;;;18.57;78.90
80118;BME280;69424;48.770;-1.564;2023-09-12T01:56:21;101402.52;;;18.57;79.02
80118;BME280;69424;48.770;-1.564;2023-09-12T01:56:56;101400.90;;;18.58;78.83
80118;BME280;69424;48.770;-1.564;2023-09-12T01:57:30;101401.44;;;18.58;78.87
80118;BME280;69424;48.770;-1.564;2023-09-12T01:58:04;101401.61;;;18.58;78.75
80118;BME280;69424;48.770;-1.564;2023-09-12T01:58:38;101402.34;;;18.58;78.75
80118;BME280;69424;48.770;-1.564;2023-09-12T01:59:12;101402.33;;;18.58;78.74
80118;BME280;69424;48.770;-1.564;2023-09-12T01:59:45;101406.43;;;18.59;78.55
80118;BME280;69424;48.770;-1.564;2023-09-12T02:00:18;101407.52;;;18.58;78.56
80118;BME280;69424;48.770;-1.564;2023-09-12T02:00:53;101405.37;;;18.59;78.61
80118;BME280;69424;48.770;-1.564;2023-09-12T02:01:27;101408.60;;;18.58;78.60
80118;BME280;69424;48.770;-1.564;2023-09-12T02:02:00;101406.27;;;18.58;78.68
80118;BME280;69424;48.770;-1.564;2023-09-12T02:02:33;101404.30;;;18.59;78.71
80118;BME280;69424;48.770;-1.564;2023-09-12T02:03:06;101404.66;;;18.58;78.61
80118;BME280;69424;48.770;-1.564;2023-09-12T02:03:40;101403.75;;;18.59;78.71
80118;BME280;69424;48.770;-1.564;2023-09-12T02:04:13;101403.38;;;18.59;78.76
80118;BME280;69424;48.770;-1.564;2023-09-12T02:04:51;101402.14;;;18.59;78.75
80118;BME280;69424;48.770;-1.564;2023-09-12T02:05:26;101401.42;;;18.59;78.85
80118;BME280;69424;48.770;-1.564;2023-09-12T02:05:59;101403.41;;;18.58;78.95
80118;BME280;69424;48.770;-1.564;2023-09-12T02:06:33;101404.66;;;18.57;79.13
80118;BME280;69424;48.770;-1.564;2023-09-12T02:07:06;101406.46;;;18.57;79.00
80118;BME280;69424;48.770;-1.564;2023-09-12T02:07:41;101403.45;;;18.56;79.02
80118;BME280;69424;48.770;-1.564;2023-09-12T02:08:14;101403.99;;;18.55;78.95
80118;BME280;69424;48.770;-1.564;2023-09-12T02:08:47;101404.00;;;18.54;78.82
80118;BME280;69424;48.770;-1.564;2023-09-12T02:09:20;101404.39;;;18.52;78.72
80118;BME280;69424;48.770;-1.564;2023-09-12T02:09:53;101411.56;;;18.50;78.84
80118;BME280;69424;48.770;-1.564;2023-09-12T02:10:27;101412.48;;;18.49;79.02
80118;BME280;69424;48.770;-1.564;2023-09-12T02:11:00;101409.98;;;18.48;79.21
80118;BME280;69424;48.770;-1.564;2023-09-12T02:11:34;101410.52;;;18.48;79.20
80118;BME280;69424;48.770;-1.564;2023-09-12T02:12:07;101416.62;;;18.48;79.29
80118;BME280;69424;48.770;-1.564;2023-09-12T02:12:41;101413.21;;;18.47;79.17
80118;BME280;69424;48.770;-1.564;2023-09-12T02:13:14;101413.57;;;18.47;79.07
80118;BME280;69424;48.770;-1.564;2023-09-12T02:13:47;101418.59;;;18.47;79.15
80118;BME280;69424;48.770;-1.564;2023-09-12T02:14:20;101414.46;;;18.48;79.20
80118;BME280;69424;48.770;-1.564;2023-09-12T02:14:53;101414.83;;;18.47;79.21
80118;BME280;69424;48.770;-1.564;2023-09-12T02:15:26;101414.46;;;18.48;79.26
80118;BME280;69424;48.770;-1.564;2023-09-12T02:16:00;101413.05;;;18.47;79.13
80118;BME280;69424;48.770;-1.564;2023-09-12T02:16:36;101412.52;;;18.47;79.31
80118;BME280;69424;48.770;-1.564;2023-09-12T02:17:13;101418.08;;;18.46;79.23
80118;BME280;69424;48.770;-1.564;2023-09-12T02:17:46;101415.20;;;18.46;79.01
80118;BME280;69424;48.770;-1.564;2023-09-12T02:18:22;101413.06;;;18.46;78.72
80118;BME280;69424;48.770;-1.564;2023-09-12T02:18:55;101412.54;;;18.45;78.72
80118;BME280;69424;48.770;-1.564;2023-09-12T02:19:28;101411.30;;;18.44;78.51
80118;BME280;69424;48.770;-1.564;2023-09-12T02:20:01;101408.98;;;18.42;78.55
80118;BME280;69424;48.770;-1.564;2023-09-12T02:20:41;101404.54;;;18.40;78.48
80118;BME280;69424;48.770;-1.564;2023-09-12T02:21:14;101405.44;;;18.40;78.62
80118;BME280;69424;48.770;-1.564;2023-09-12T02:21:48;101407.79;;;18.38;78.70
80118;BME280;69424;48.770;-1.564;2023-09-12T02:22:22;101410.66;;;18.38;78.67
80118;BME280;69424;48.770;-1.564;2023-09-12T02:22:55;101411.05;;;18.35;78.67
80118;BME280;69424;48.770;-1.564;2023-09-12T02:23:28;101407.67;;;18.33;78.64
80118;BME280;69424;48.770;-1.564;2023-09-12T02:24:01;101411.09;;;18.30;78.85
80118;BME280;69424;48.770;-1.564;2023-09-12T02:24:34;101406.30;;;18.28;79.16
80118;BME280;69424;48.770;-1.564;2023-09-12T02:25:09;101409.19;;;18.27;79.36
80118;BME280;69424;48.770;-1.564;2023-09-12T02:25:42;101411.16;;;18.26;79.45
80118;BME280;69424;48.770;-1.564;2023-09-12T02:26:15;101407.40;;;18.26;79.52
80118;BME280;69424;48.770;-1.564;2023-09-12T02:26:48;101409.92;;;18.25;79.56
80118;BME280;69424;48.770;-1.564;2023-09-12T02:27:21;101408.13;;;18.25;79.58
80118;BME280;69424;48.770;-1.564;2023-09-12T02:27:54;101407.59;;;18.25;79.62
80118;BME280;69424;48.770;-1.564;2023-09-12T02:28:27;101407.95;;;18.25;79.51
80118;BME280;69424;48.770;-1.564;2023-09-12T02:29:01;101408.14;;;18.24;79.54
80118;BME280;69424;48.770;-1.564;2023-09-12T02:29:34;101408.52;;;18.24;79.52
80118;BME280;69424;48.770;-1.564;2023-09-12T02:30:07;101409.94;;;18.24;79.54
80118;BME280;69424;48.770;-1.564;2023-09-12T02:30:41;101408.14;;;18.25;79.57
80118;BME280;69424;48.770;-1.564;2023-09-12T02:31:14;101407.23;;;18.25;79.57
80118;BME280;69424;48.770;-1.564;2023-09-12T02:31:47;101407.05;;;18.25;79.43
80118;BME280;69424;48.770;-1.564;2023-09-12T02:32:20;101406.89;;;18.25;79.44
80118;BME280;69424;48.770;-1.564;2023-09-12T02:32:53;101406.52;;;18.25;79.21
80118;BME280;69424;48.770;-1.564;2023-09-12T02:33:27;101405.63;;;18.24;79.16
80118;BME280;69424;48.770;-1.564;2023-09-12T02:34:00;101403.30;;;18.24;79.08
80118;BME280;69424;48.770;-1.564;2023-09-12T02:34:34;101407.95;;;18.24;79.15
80118;BME280;69424;48.770;-1.564;2023-09-12T02:35:07;101404.57;;;18.24;79.14
80118;BME280;69424;48.770;-1.564;2023-09-12T02:35:40;101404.04;;;18.22;79.28
80118;BME280;69424;48.770;-1.564;2023-09-12T02:36:13;101405.30;;;18.22;79.42
80118;BME280;69424;48.770;-1.564;2023-09-12T02:36:46;101402.27;;;18.21;79.25
80118;BME280;69424;48.770;-1.564;2023-09-12T02:37:19;101402.80;;;18.20;79.34
80118;BME280;69424;48.770;-1.564;2023-09-12T02:37:52;101400.85;;;18.20;79.55
80118;BME280;69424;48.770;-1.564;2023-09-12T02:38:26;101404.61;;;18.19;79.51
80118;BME280;69424;48.770;-1.564;2023-09-12T02:38:59;101404.98;;;18.19;79.54
80118;BME280;69424;48.770;-1.564;2023-09-12T02:39:32;101401.75;;;18.19;79.71
80118;BME280;69424;48.770;-1.564;2023-09-12T02:40:06;101401.56;;;18.19;79.65
80118;BME280;69424;48.770;-1.564;2023-09-12T02:40:39;101403.17;;;18.19;79.85
80118;BME280;69424;48.770;-1.564;2023-09-12T02:41:12;101406.23;;;18.20;79.91
80118;BME280;69424;48.770;-1.564;2023-09-12T02:41:46;101403.52;;;18.21;79.82
80118;BME280;69424;48.770;-1.564;2023-09-12T02:42:19;101404.95;;;18.22;79.73
80118;BME280;69424;48.770;-1.564;2023-09-12T02:42:53;101405.48;;;18.22;79.64
80118;BME280;69424;48.770;-1.564;2023-09-12T02:43:26;101405.30;;;18.22;79.64
80118;BME280;69424;48.770;-1.564;2023-09-12T02:43:59;101405.29;;;18.23;79.65
80118;BME280;69424;48.770;-1.564;2023-09-12T02:44:33;101403.66;;;18.24;79.63
80118;BME280;69424;48.770;-1.564;2023-09-12T02:45:06;101406.00;;;18.24;79.66
80118;BME280;69424;48.770;-1.564;2023-09-12T02:45:39;101400.81;;;18.24;79.69
80118;BME280;69424;48.770;-1.564;2023-09-12T02:46:12;101401.70;;;18.23;79.46
80118;BME280;69424;48.770;-1.564;2023-09-12T02:46:46;101401.36;;;18.23;79.59
80118;BME280;69424;48.770;-1.564;2023-09-12T02:47:20;101399.05;;;18.22;79.57
80118;BME280;69424;48.770;-1.564;2023-09-12T02:47:53;101397.79;;;18.22;79.47
80118;BME280;69424;48.770;-1.564;2023-09-12T02:48:26;101398.16;;;18.21;79.60
80118;BME280;69424;48.770;-1.564;2023-09-12T02:48:59;101397.09;;;18.21;79.41
80118;BME280;69424;48.770;-1.564;2023-09-12T02:49:32;101397.63;;;18.20;79.26
80118;BME280;69424;48.770;-1.564;2023-09-12T02:50:05;101398.73;;;18.18;79.32
80118;BME280;69424;48.770;-1.564;2023-09-12T02:50:39;101398.58;;;18.15;79.24
80118;BME280;69424;48.770;-1.564;2023-09-12T02:51:12;101400.92;;;18.13;79.41
80118;BME280;69424;48.770;-1.564;2023-09-12T02:51:45;101397.72;;;18.12;79.58
80118;BME280;69424;48.770;-1.564;2023-09-12T02:52:18;101399.71;;;18.10;79.68
80118;BME280;69424;48.770;-1.564;2023-09-12T02:52:51;101398.10;;;18.09;79.41
80118;BME280;69424;48.770;-1.564;2023-09-12T02:53:24;101398.84;;;18.08;79.44
80118;BME280;69424;48.770;-1.564;2023-09-12T02:53:57;101397.06;;;18.06;79.53
80118;BME280;69424;48.770;-1.564;2023-09-12T02:54:30;101400.67;;;18.04;79.50
80118;BME280;69424;48.770;-1.564;2023-09-12T02:55:05;101398.55;;;18.03;79.69
80118;BME280;69424;48.770;-1.564;2023-09-12T02:55:39;101402.14;;;18.02;79.86
80118;BME280;69424;48.770;-1.564;2023-09-12T02:56:13;101399.46;;;18.00;79.82
80118;BME280;69424;48.770;-1.564;2023-09-12T02:56:46;101400.02;;;17.99;79.84
80118;BME280;69424;48.770;-1.564;2023-09-12T02:57:19;101404.49;;;17.98;79.89
80118;BME280;69424;48.770;-1.564;2023-09-12T02:57:52;101402.91;;;17.97;80.07
80118;BME280;69424;48.770;-1.564;2023-09-12T02:58:25;101402.90;;;17.97;79.99
80118;BME280;69424;48.770;-1.564;2023-09-12T02:58:58;101404.17;;;17.97;80.21
80118;BME280;69424;48.770;-1.564;2023-09-12T02:59:31;101405.77;;;17.97;80.39
80118;BME280;69424;48.770;-1.564;2023-09-12T03:00:06;101405.58;;;17.97;80.46
80118;BME280;69424;48.770;-1.564;2023-09-12T03:00:41;101407.91;;;17.97;80.43
80118;BME280;69424;48.770;-1.564;2023-09-12T03:01:18;101405.22;;;17.99;80.49